This is the latest recevied weather packets stored in our database for station/object S51FO-6. If no packets are shown the sender has not sent any weather packets the latest 10 day(s).
| Time | Temp. | Humidity | Pressure | Rain* | Wind** | Luminosity | Snow |
|---|---|---|---|---|---|---|---|
| 1777449584 | 7.78° C | 63% | - | 0 mm | - | - | - |
| 1777448384 | 7.78° C | 62% | - | 0 mm | - | - | - |
| 1777447184 | 7.78° C | 60% | - | 0 mm | - | - | - |
| 1777446584 | 8.33° C | 60% | - | 0 mm | - | - | - |
| 1777444184 | 7.78° C | 61% | - | 0 mm | - | - | - |
| 1777443584 | 8.33° C | 60% | - | 0 mm | - | - | - |
| 1777441190 | 7.78° C | 58% | - | 0 mm | - | - | - |
| 1777440587 | 7.78° C | 60% | - | 0 mm | - | - | - |
| 1777439387 | 7.22° C | 63% | - | 0 mm | - | - | - |
| 1777438787 | 7.22° C | 63% | - | 0 mm | - | - | - |
| 1777437587 | 5.56° C | 73% | - | 0 mm | - | - | - |
| 1777436986 | 5.56° C | 74% | - | 0 mm | - | - | - |
| 1777435788 | 6.11° C | 73% | - | 0 mm | - | - | - |
| 1777435187 | 5.56° C | 75% | - | 0 mm | - | - | - |
| 1777414194 | 3.33° C | 84% | - | 0 mm | - | - | - |
| 1777410584 | 2.22° C | 83% | - | 0 mm | - | - | - |
| 1777409384 | 1.67° C | 82% | - | 0 mm | - | - | - |
| 1777408184 | 2.22° C | 81% | - | 0 mm | - | - | - |
| 1777407584 | 2.78° C | 80% | - | 0 mm | - | - | - |
| 1777406385 | 3.33° C | 80% | - | 0 mm | - | - | - |
| 1777404584 | 4.44° C | 77% | - | 0 mm | - | - | - |
| 1777403384 | 5° C | 77% | - | 0 mm | - | - | - |
| 1777397384 | 12.22° C | 52% | - | 0 mm | - | - | - |
| 1777394984 | 13.89° C | 47% | - | 0 mm | - | - | - |
| 1777389584 | 16.11° C | 35% | - | 0 mm | - | - | - |
* Rain latest hour (hover to see other rain measurements)
** Current wind speed in m/s (hover to see current wind gust speed)